sensor_id;sensor_type;location;lat;lon;timestamp;P1;durP1;ratioP1;P2;durP2;ratioP2
1703;SDS011;849;48.780;9.216;2023-08-21T00:01:18;48.00;;;4.10;;
1703;SDS011;849;48.780;9.216;2023-08-21T00:03:49;48.20;;;4.60;;
1703;SDS011;849;48.780;9.216;2023-08-21T00:06:19;47.90;;;3.10;;
1703;SDS011;849;48.780;9.216;2023-08-21T00:08:50;47.70;;;3.10;;
1703;SDS011;849;48.780;9.216;2023-08-21T00:11:21;47.60;;;2.90;;
1703;SDS011;849;48.780;9.216;2023-08-21T00:13:52;48.00;;;3.87;;
1703;SDS011;849;48.780;9.216;2023-08-21T00:16:22;47.80;;;3.07;;
1703;SDS011;849;48.780;9.216;2023-08-21T00:18:53;47.80;;;2.90;;
1703;SDS011;849;48.780;9.216;2023-08-21T00:21:24;47.70;;;3.00;;
1703;SDS011;849;48.780;9.216;2023-08-21T00:23:55;47.70;;;2.90;;
1703;SDS011;849;48.780;9.216;2023-08-21T00:26:26;47.90;;;3.10;;
1703;SDS011;849;48.780;9.216;2023-08-21T00:28:57;47.70;;;3.00;;
1703;SDS011;849;48.780;9.216;2023-08-21T00:31:27;48.00;;;3.00;;
1703;SDS011;849;48.780;9.216;2023-08-21T00:33:58;47.70;;;2.87;;
1703;SDS011;849;48.780;9.216;2023-08-21T00:36:29;47.80;;;2.80;;
1703;SDS011;849;48.780;9.216;2023-08-21T00:39:00;47.80;;;3.30;;
1703;SDS011;849;48.780;9.216;2023-08-21T00:41:31;47.80;;;3.00;;
1703;SDS011;849;48.780;9.216;2023-08-21T00:44:04;47.73;;;3.10;;
1703;SDS011;849;48.780;9.216;2023-08-21T00:46:35;47.90;;;3.20;;
1703;SDS011;849;48.780;9.216;2023-08-21T00:49:05;47.80;;;3.20;;
1703;SDS011;849;48.780;9.216;2023-08-21T00:51:36;47.70;;;2.93;;
1703;SDS011;849;48.780;9.216;2023-08-21T00:54:07;47.80;;;2.97;;
1703;SDS011;849;48.780;9.216;2023-08-21T00:56:38;47.80;;;2.97;;
1703;SDS011;849;48.780;9.216;2023-08-21T00:59:09;47.90;;;3.10;;
1703;SDS011;849;48.780;9.216;2023-08-21T01:01:40;47.90;;;3.43;;
1703;SDS011;849;48.780;9.216;2023-08-21T01:04:11;47.67;;;3.07;;
1703;SDS011;849;48.780;9.216;2023-08-21T01:06:42;47.70;;;3.10;;
1703;SDS011;849;48.780;9.216;2023-08-21T01:14:59;48.00;;;2.97;;
1703;SDS011;849;48.780;9.216;2023-08-21T01:17:34;47.73;;;3.20;;
1703;SDS011;849;48.780;9.216;2023-08-21T01:20:07;47.90;;;3.27;;
1703;SDS011;849;48.780;9.216;2023-08-21T01:22:41;47.90;;;3.33;;
1703;SDS011;849;48.780;9.216;2023-08-21T01:25:18;47.70;;;3.43;;
1703;SDS011;849;48.780;9.216;2023-08-21T01:27:49;47.80;;;3.20;;
1703;SDS011;849;48.780;9.216;2023-08-21T01:30:21;48.00;;;3.00;;
1703;SDS011;849;48.780;9.216;2023-08-21T01:33:10;47.80;;;3.17;;
1703;SDS011;849;48.780;9.216;2023-08-21T01:35:44;47.93;;;3.40;;
1703;SDS011;849;48.780;9.216;2023-08-21T01:38:15;48.00;;;3.40;;
1703;SDS011;849;48.780;9.216;2023-08-21T01:40:47;47.60;;;4.37;;
1703;SDS011;849;48.780;9.216;2023-08-21T01:43:18;48.07;;;4.17;;
1703;SDS011;849;48.780;9.216;2023-08-21T01:45:50;48.30;;;4.23;;
1703;SDS011;849;48.780;9.216;2023-08-21T01:48:21;48.00;;;4.30;;
1703;SDS011;849;48.780;9.216;2023-08-21T01:50:52;48.20;;;4.50;;
1703;SDS011;849;48.780;9.216;2023-08-21T01:53:23;47.57;;;4.10;;
1703;SDS011;849;48.780;9.216;2023-08-21T01:55:59;47.57;;;4.33;;
1703;SDS011;849;48.780;9.216;2023-08-21T01:58:30;48.20;;;4.40;;
1703;SDS011;849;48.780;9.216;2023-08-21T02:01:00;48.20;;;4.50;;
1703;SDS011;849;48.780;9.216;2023-08-21T02:03:31;47.80;;;4.27;;
1703;SDS011;849;48.780;9.216;2023-08-21T02:06:02;48.00;;;4.23;;
1703;SDS011;849;48.780;9.216;2023-08-21T02:08:33;48.20;;;4.47;;
1703;SDS011;849;48.780;9.216;2023-08-21T02:11:04;48.10;;;4.27;;
1703;SDS011;849;48.780;9.216;2023-08-21T02:13:35;48.00;;;4.40;;
1703;SDS011;849;48.780;9.216;2023-08-21T02:16:06;48.00;;;4.87;;
1703;SDS011;849;48.780;9.216;2023-08-21T02:18:37;47.57;;;4.60;;
1703;SDS011;849;48.780;9.216;2023-08-21T02:21:07;47.93;;;4.77;;
1703;SDS011;849;48.780;9.216;2023-08-21T02:23:38;48.40;;;4.63;;
1703;SDS011;849;48.780;9.216;2023-08-21T02:26:09;48.00;;;4.87;;
1703;SDS011;849;48.780;9.216;2023-08-21T02:28:40;47.70;;;4.47;;
1703;SDS011;849;48.780;9.216;2023-08-21T02:31:13;48.10;;;4.30;;
1703;SDS011;849;48.780;9.216;2023-08-21T02:33:44;47.60;;;4.60;;
1703;SDS011;849;48.780;9.216;2023-08-21T02:36:15;48.40;;;4.40;;
1703;SDS011;849;48.780;9.216;2023-08-21T02:38:46;47.60;;;4.27;;
1703;SDS011;849;48.780;9.216;2023-08-21T02:41:17;48.00;;;4.10;;
1703;SDS011;849;48.780;9.216;2023-08-21T02:43:49;47.80;;;4.40;;
1703;SDS011;849;48.780;9.216;2023-08-21T02:46:20;48.00;;;4.17;;
1703;SDS011;849;48.780;9.216;2023-08-21T02:48:51;47.67;;;4.40;;
1703;SDS011;849;48.780;9.216;2023-08-21T02:51:22;48.37;;;4.70;;
1703;SDS011;849;48.780;9.216;2023-08-21T02:53:52;48.30;;;4.97;;
1703;SDS011;849;48.780;9.216;2023-08-21T02:56:23;48.30;;;4.43;;
1703;SDS011;849;48.780;9.216;2023-08-21T02:58:54;48.50;;;4.70;;
1703;SDS011;849;48.780;9.216;2023-08-21T03:01:25;48.00;;;4.50;;
1703;SDS011;849;48.780;9.216;2023-08-21T03:03:55;47.77;;;4.77;;
1703;SDS011;849;48.780;9.216;2023-08-21T03:06:26;48.37;;;4.60;;
1703;SDS011;849;48.780;9.216;2023-08-21T03:08:57;48.30;;;5.00;;
1703;SDS011;849;48.780;9.216;2023-08-21T03:11:28;47.80;;;4.90;;
1703;SDS011;849;48.780;9.216;2023-08-21T03:13:58;48.60;;;5.10;;
1703;SDS011;849;48.780;9.216;2023-08-21T03:16:29;48.40;;;4.80;;
1703;SDS011;849;48.780;9.216;2023-08-21T03:19:00;48.30;;;4.80;;
1703;SDS011;849;48.780;9.216;2023-08-21T03:21:31;47.70;;;4.87;;
1703;SDS011;849;48.780;9.216;2023-08-21T03:24:02;47.97;;;5.20;;
1703;SDS011;849;48.780;9.216;2023-08-21T03:26:33;48.40;;;4.80;;
1703;SDS011;849;48.780;9.216;2023-08-21T03:29:04;48.50;;;4.60;;
1703;SDS011;849;48.780;9.216;2023-08-21T03:31:35;48.30;;;4.80;;
1703;SDS011;849;48.780;9.216;2023-08-21T03:34:05;48.50;;;4.80;;
1703;SDS011;849;48.780;9.216;2023-08-21T03:36:36;48.73;;;5.03;;
1703;SDS011;849;48.780;9.216;2023-08-21T03:39:08;48.67;;;5.10;;
1703;SDS011;849;48.780;9.216;2023-08-21T03:41:39;48.10;;;5.07;;
1703;SDS011;849;48.780;9.216;2023-08-21T03:44:10;48.60;;;4.87;;
1703;SDS011;849;48.780;9.216;2023-08-21T03:46:41;48.80;;;5.50;;
1703;SDS011;849;48.780;9.216;2023-08-21T03:49:12;48.40;;;5.10;;
1703;SDS011;849;48.780;9.216;2023-08-21T03:51:42;48.30;;;5.20;;
1703;SDS011;849;48.780;9.216;2023-08-21T03:54:13;48.40;;;5.03;;
1703;SDS011;849;48.780;9.216;2023-08-21T03:56:44;48.67;;;5.07;;
1703;SDS011;849;48.780;9.216;2023-08-21T03:59:15;48.40;;;4.93;;
1703;SDS011;849;48.780;9.216;2023-08-21T04:01:45;48.73;;;5.20;;
1703;SDS011;849;48.780;9.216;2023-08-21T04:04:23;48.10;;;5.07;;
1703;SDS011;849;48.780;9.216;2023-08-21T04:06:59;48.70;;;5.20;;
1703;SDS011;849;48.780;9.216;2023-08-21T04:09:36;48.50;;;5.10;;
1703;SDS011;849;48.780;9.216;2023-08-21T04:12:07;47.97;;;4.93;;
1703;SDS011;849;48.780;9.216;2023-08-21T04:14:38;48.20;;;5.13;;
1703;SDS011;849;48.780;9.216;2023-08-21T04:17:08;48.77;;;5.10;;
1703;SDS011;849;48.780;9.216;2023-08-21T04:19:39;48.70;;;5.50;;
1703;SDS011;849;48.780;9.216;2023-08-21T04:22:11;48.60;;;5.20;;
1703;SDS011;849;48.780;9.216;2023-08-21T04:24:42;48.70;;;5.17;;
1703;SDS011;849;48.780;9.216;2023-08-21T04:27:13;48.27;;;5.27;;
1703;SDS011;849;48.780;9.216;2023-08-21T04:29:43;48.97;;;5.70;;
1703;SDS011;849;48.780;9.216;2023-08-21T04:32:14;48.47;;;5.13;;
1703;SDS011;849;48.780;9.216;2023-08-21T04:34:45;48.83;;;5.30;;
1703;SDS011;849;48.780;9.216;2023-08-21T04:37:16;48.50;;;5.03;;
1703;SDS011;849;48.780;9.216;2023-08-21T04:39:50;48.60;;;4.87;;
1703;SDS011;849;48.780;9.216;2023-08-21T04:42:22;48.70;;;5.40;;
1703;SDS011;849;48.780;9.216;2023-08-21T04:44:53;48.60;;;5.40;;
1703;SDS011;849;48.780;9.216;2023-08-21T04:47:26;48.60;;;5.30;;
1703;SDS011;849;48.780;9.216;2023-08-21T04:49:57;48.53;;;5.40;;
1703;SDS011;849;48.780;9.216;2023-08-21T04:52:28;48.13;;;5.50;;
1703;SDS011;849;48.780;9.216;2023-08-21T04:54:59;48.60;;;5.30;;
1703;SDS011;849;48.780;9.216;2023-08-21T04:57:30;48.60;;;5.30;;
1703;SDS011;849;48.780;9.216;2023-08-21T05:00:00;48.70;;;4.97;;
1703;SDS011;849;48.780;9.216;2023-08-21T05:02:31;48.17;;;4.90;;
1703;SDS011;849;48.780;9.216;2023-08-21T05:05:09;48.50;;;4.83;;
1703;SDS011;849;48.780;9.216;2023-08-21T05:07:40;51.80;;;4.82;;
1703;SDS011;849;48.780;9.216;2023-08-21T05:10:11;48.87;;;5.30;;
1703;SDS011;849;48.780;9.216;2023-08-21T05:12:41;48.77;;;5.10;;
1703;SDS011;849;48.780;9.216;2023-08-21T05:15:12;48.77;;;4.90;;
1703;SDS011;849;48.780;9.216;2023-08-21T05:17:43;48.20;;;4.90;;
1703;SDS011;849;48.780;9.216;2023-08-21T05:20:14;48.60;;;5.10;;
1703;SDS011;849;48.780;9.216;2023-08-21T05:22:45;48.40;;;5.20;;
1703;SDS011;849;48.780;9.216;2023-08-21T05:25:15;48.70;;;5.17;;
1703;SDS011;849;48.780;9.216;2023-08-21T05:27:46;48.43;;;4.93;;
1703;SDS011;849;48.780;9.216;2023-08-21T05:30:17;48.80;;;5.77;;
1703;SDS011;849;48.780;9.216;2023-08-21T05:32:48;48.37;;;4.90;;
1703;SDS011;849;48.780;9.216;2023-08-21T05:35:19;48.47;;;5.10;;
1703;SDS011;849;48.780;9.216;2023-08-21T05:37:49;48.60;;;5.30;;
1703;SDS011;849;48.780;9.216;2023-08-21T05:40:20;48.60;;;5.20;;
1703;SDS011;849;48.780;9.216;2023-08-21T05:42:51;47.97;;;5.20;;
1703;SDS011;849;48.780;9.216;2023-08-21T05:45:22;48.00;;;5.10;;
1703;SDS011;849;48.780;9.216;2023-08-21T05:47:53;48.80;;;5.30;;
1703;SDS011;849;48.780;9.216;2023-08-21T05:50:25;51.70;;;4.75;;
1703;SDS011;849;48.780;9.216;2023-08-21T05:52:56;51.50;;;3.80;;
1703;SDS011;849;48.780;9.216;2023-08-21T05:55:28;48.70;;;5.13;;
1703;SDS011;849;48.780;9.216;2023-08-21T05:57:58;48.07;;;4.93;;
1703;SDS011;849;48.780;9.216;2023-08-21T06:00:29;48.70;;;6.30;;
1703;SDS011;849;48.780;9.216;2023-08-21T06:03:00;48.50;;;5.23;;
1703;SDS011;849;48.780;9.216;2023-08-21T06:05:31;48.60;;;5.47;;
1703;SDS011;849;48.780;9.216;2023-08-21T06:08:02;48.50;;;5.30;;
1703;SDS011;849;48.780;9.216;2023-08-21T06:10:33;48.70;;;5.57;;
1703;SDS011;849;48.780;9.216;2023-08-21T06:13:04;48.30;;;5.03;;
1703;SDS011;849;48.780;9.216;2023-08-21T06:15:35;48.20;;;4.87;;
1703;SDS011;849;48.780;9.216;2023-08-21T06:18:05;48.57;;;5.30;;
1703;SDS011;849;48.780;9.216;2023-08-21T06:20:36;48.20;;;5.10;;
1703;SDS011;849;48.780;9.216;2023-08-21T06:23:07;48.20;;;5.60;;
1703;SDS011;849;48.780;9.216;2023-08-21T06:25:38;48.50;;;5.67;;
1703;SDS011;849;48.780;9.216;2023-08-21T06:28:08;48.20;;;5.60;;
1703;SDS011;849;48.780;9.216;2023-08-21T06:30:39;48.70;;;5.50;;
1703;SDS011;849;48.780;9.216;2023-08-21T06:33:10;48.07;;;5.47;;
1703;SDS011;849;48.780;9.216;2023-08-21T06:35:41;48.40;;;5.30;;
1703;SDS011;849;48.780;9.216;2023-08-21T06:38:12;48.40;;;5.50;;
1703;SDS011;849;48.780;9.216;2023-08-21T06:40:44;48.40;;;5.50;;
1703;SDS011;849;48.780;9.216;2023-08-21T06:43:18;48.27;;;5.73;;
1703;SDS011;849;48.780;9.216;2023-08-21T06:45:48;48.60;;;5.63;;
1703;SDS011;849;48.780;9.216;2023-08-21T06:48:19;48.40;;;5.60;;
1703;SDS011;849;48.780;9.216;2023-08-21T06:50:50;48.70;;;5.40;;
1703;SDS011;849;48.780;9.216;2023-08-21T06:53:21;48.20;;;5.73;;
1703;SDS011;849;48.780;9.216;2023-08-21T06:55:52;48.70;;;5.37;;
1703;SDS011;849;48.780;9.216;2023-08-21T06:58:22;48.47;;;5.53;;
1703;SDS011;849;48.780;9.216;2023-08-21T07:00:54;48.20;;;5.30;;
1703;SDS011;849;48.780;9.216;2023-08-21T07:03:25;48.00;;;5.60;;
1703;SDS011;849;48.780;9.216;2023-08-21T07:05:57;48.67;;;5.50;;
1703;SDS011;849;48.780;9.216;2023-08-21T07:08:28;47.97;;;5.30;;
1703;SDS011;849;48.780;9.216;2023-08-21T07:11:06;48.30;;;5.00;;
1703;SDS011;849;48.780;9.216;2023-08-21T07:13:38;48.10;;;5.00;;
1703;SDS011;849;48.780;9.216;2023-08-21T07:16:09;51.30;;;3.75;;
1703;SDS011;849;48.780;9.216;2023-08-21T07:18:40;48.37;;;5.20;;
1703;SDS011;849;48.780;9.216;2023-08-21T07:21:11;48.40;;;5.07;;
1703;SDS011;849;48.780;9.216;2023-08-21T07:23:41;47.93;;;5.20;;
1703;SDS011;849;48.780;9.216;2023-08-21T07:26:12;47.63;;;4.90;;
1703;SDS011;849;48.780;9.216;2023-08-21T07:28:43;48.10;;;4.90;;
1703;SDS011;849;48.780;9.216;2023-08-21T07:31:14;51.40;;;4.20;;
1703;SDS011;849;48.780;9.216;2023-08-21T07:33:44;48.30;;;4.90;;
1703;SDS011;849;48.780;9.216;2023-08-21T07:36:15;48.20;;;5.20;;
1703;SDS011;849;48.780;9.216;2023-08-21T07:38:49;48.40;;;5.30;;
1703;SDS011;849;48.780;9.216;2023-08-21T07:41:20;48.40;;;5.30;;
1703;SDS011;849;48.780;9.216;2023-08-21T07:43:51;48.60;;;5.40;;
1703;SDS011;849;48.780;9.216;2023-08-21T07:46:22;48.17;;;5.20;;
1703;SDS011;849;48.780;9.216;2023-08-21T07:48:54;48.27;;;5.43;;
1703;SDS011;849;48.780;9.216;2023-08-21T07:51:27;48.27;;;4.80;;
1703;SDS011;849;48.780;9.216;2023-08-21T07:53:58;48.13;;;5.20;;
1703;SDS011;849;48.780;9.216;2023-08-21T07:56:29;47.80;;;5.10;;
1703;SDS011;849;48.780;9.216;2023-08-21T07:59:00;48.10;;;5.50;;
1703;SDS011;849;48.780;9.216;2023-08-21T08:01:31;48.50;;;5.70;;
1703;SDS011;849;48.780;9.216;2023-08-21T08:04:09;48.27;;;5.30;;
1703;SDS011;849;48.780;9.216;2023-08-21T08:06:41;48.40;;;5.40;;
1703;SDS011;849;48.780;9.216;2023-08-21T08:09:12;48.07;;;5.60;;
1703;SDS011;849;48.780;9.216;2023-08-21T08:11:42;47.97;;;5.40;;
1703;SDS011;849;48.780;9.216;2023-08-21T08:14:13;48.40;;;5.30;;
1703;SDS011;849;48.780;9.216;2023-08-21T08:16:44;48.00;;;5.50;;
1703;SDS011;849;48.780;9.216;2023-08-21T08:19:15;47.77;;;5.10;;
1703;SDS011;849;48.780;9.216;2023-08-21T08:21:45;47.73;;;5.60;;
1703;SDS011;849;48.780;9.216;2023-08-21T08:24:16;47.83;;;5.23;;
1703;SDS011;849;48.780;9.216;2023-08-21T08:26:47;47.83;;;5.47;;
1703;SDS011;849;48.780;9.216;2023-08-21T08:29:19;48.30;;;5.40;;
1703;SDS011;849;48.780;9.216;2023-08-21T08:31:49;48.40;;;5.30;;
1703;SDS011;849;48.780;9.216;2023-08-21T08:34:27;48.20;;;5.60;;
1703;SDS011;849;48.780;9.216;2023-08-21T08:36:57;48.30;;;4.90;;
1703;SDS011;849;48.780;9.216;2023-08-21T08:39:35;48.40;;;5.83;;
1703;SDS011;849;48.780;9.216;2023-08-21T08:42:06;48.03;;;5.57;;
1703;SDS011;849;48.780;9.216;2023-08-21T08:44:38;48.87;;;6.60;;
1703;SDS011;849;48.780;9.216;2023-08-21T08:47:11;48.37;;;5.77;;
1703;SDS011;849;48.780;9.216;2023-08-21T08:49:42;48.50;;;5.53;;
1703;SDS011;849;48.780;9.216;2023-08-21T08:52:13;48.60;;;5.50;;
1703;SDS011;849;48.780;9.216;2023-08-21T08:54:47;48.70;;;6.40;;
1703;SDS011;849;48.780;9.216;2023-08-21T08:57:24;48.80;;;6.03;;
1703;SDS011;849;48.780;9.216;2023-08-21T08:59:55;48.70;;;5.43;;
1703;SDS011;849;48.780;9.216;2023-08-21T09:02:26;48.60;;;5.37;;
1703;SDS011;849;48.780;9.216;2023-08-21T09:04:57;48.70;;;5.43;;
1703;SDS011;849;48.780;9.216;2023-08-21T09:07:28;48.33;;;5.60;;
1703;SDS011;849;48.780;9.216;2023-08-21T09:10:00;48.47;;;5.47;;
1703;SDS011;849;48.780;9.216;2023-08-21T09:12:33;48.60;;;5.60;;
1703;SDS011;849;48.780;9.216;2023-08-21T09:15:07;48.50;;;5.83;;
1703;SDS011;849;48.780;9.216;2023-08-21T09:17:38;48.40;;;5.50;;
1703;SDS011;849;48.780;9.216;2023-08-21T09:20:09;48.30;;;5.13;;
1703;SDS011;849;48.780;9.216;2023-08-21T09:22:41;48.50;;;5.47;;
1703;SDS011;849;48.780;9.216;2023-08-21T09:25:13;48.30;;;5.30;;
1703;SDS011;849;48.780;9.216;2023-08-21T09:27:51;48.37;;;5.20;;
1703;SDS011;849;48.780;9.216;2023-08-21T09:30:23;48.57;;;5.10;;
1703;SDS011;849;48.780;9.216;2023-08-21T09:32:55;48.57;;;5.73;;
1703;SDS011;849;48.780;9.216;2023-08-21T09:35:27;48.40;;;5.60;;
1703;SDS011;849;48.780;9.216;2023-08-21T09:37:58;48.37;;;5.30;;
1703;SDS011;849;48.780;9.216;2023-08-21T09:40:29;48.33;;;5.20;;
1703;SDS011;849;48.780;9.216;2023-08-21T09:43:00;48.10;;;5.53;;
1703;SDS011;849;48.780;9.216;2023-08-21T09:45:34;48.00;;;5.20;;
1703;SDS011;849;48.780;9.216;2023-08-21T09:48:05;48.50;;;5.00;;
1703;SDS011;849;48.780;9.216;2023-08-21T09:50:36;48.47;;;6.67;;
1703;SDS011;849;48.780;9.216;2023-08-21T09:53:08;48.20;;;5.17;;
1703;SDS011;849;48.780;9.216;2023-08-21T09:55:40;48.10;;;5.30;;
1703;SDS011;849;48.780;9.216;2023-08-21T09:58:12;48.20;;;5.70;;
1703;SDS011;849;48.780;9.216;2023-08-21T10:00:43;48.57;;;5.60;;
1703;SDS011;849;48.780;9.216;2023-08-21T10:03:17;47.87;;;5.60;;
1703;SDS011;849;48.780;9.216;2023-08-21T10:05:50;48.40;;;5.60;;
1703;SDS011;849;48.780;9.216;2023-08-21T10:08:24;48.50;;;5.83;;
1703;SDS011;849;48.780;9.216;2023-08-21T10:10:56;48.50;;;5.90;;
1703;SDS011;849;48.780;9.216;2023-08-21T10:13:29;48.20;;;5.47;;
1703;SDS011;849;48.780;9.216;2023-08-21T10:16:00;48.40;;;5.50;;
1703;SDS011;849;48.780;9.216;2023-08-21T10:18:35;48.33;;;5.60;;
1703;SDS011;849;48.780;9.216;2023-08-21T10:21:19;48.30;;;5.10;;
1703;SDS011;849;48.780;9.216;2023-08-21T10:23:54;47.97;;;5.30;;
1703;SDS011;849;48.780;9.216;2023-08-21T10:26:25;48.40;;;5.30;;
1703;SDS011;849;48.780;9.216;2023-08-21T10:28:59;48.40;;;5.40;;
1703;SDS011;849;48.780;9.216;2023-08-21T10:31:37;48.37;;;5.43;;
1703;SDS011;849;48.780;9.216;2023-08-21T10:34:10;48.50;;;5.67;;
1703;SDS011;849;48.780;9.216;2023-08-21T10:39:20;48.30;;;5.30;;
1703;SDS011;849;48.780;9.216;2023-08-21T10:41:55;48.47;;;5.97;;
1703;SDS011;849;48.780;9.216;2023-08-21T10:44:34;48.40;;;5.27;;
1703;SDS011;849;48.780;9.216;2023-08-21T10:47:53;48.30;;;5.67;;
1703;SDS011;849;48.780;9.216;2023-08-21T10:50:06;48.30;;;5.00;;
1703;SDS011;849;48.780;9.216;2023-08-21T10:52:45;47.90;;;4.30;;
1703;SDS011;849;48.780;9.216;2023-08-21T10:55:16;48.20;;;5.10;;
1703;SDS011;849;48.780;9.216;2023-08-21T10:57:57;48.10;;;4.70;;
1703;SDS011;849;48.780;9.216;2023-08-21T11:00:28;48.27;;;5.23;;
1703;SDS011;849;48.780;9.216;2023-08-21T11:03:05;48.10;;;5.20;;
1703;SDS011;849;48.780;9.216;2023-08-21T11:05:36;48.30;;;5.27;;
1703;SDS011;849;48.780;9.216;2023-08-21T11:08:07;48.30;;;5.50;;
1703;SDS011;849;48.780;9.216;2023-08-21T11:10:38;48.70;;;6.43;;
1703;SDS011;849;48.780;9.216;2023-08-21T11:13:10;50.00;;;11.43;;
1703;SDS011;849;48.780;9.216;2023-08-21T11:15:41;48.20;;;5.80;;
1703;SDS011;849;48.780;9.216;2023-08-21T11:18:15;48.40;;;6.20;;
1703;SDS011;849;48.780;9.216;2023-08-21T11:20:46;48.20;;;5.37;;
1703;SDS011;849;48.780;9.216;2023-08-21T11:23:31;48.20;;;5.30;;
1703;SDS011;849;48.780;9.216;2023-08-21T11:26:03;48.10;;;5.20;;
1703;SDS011;849;48.780;9.216;2023-08-21T11:28:34;48.40;;;6.03;;
1703;SDS011;849;48.780;9.216;2023-08-21T11:31:05;48.27;;;5.30;;
1703;SDS011;849;48.780;9.216;2023-08-21T11:33:37;48.20;;;5.50;;
1703;SDS011;849;48.780;9.216;2023-08-21T11:36:09;48.10;;;5.60;;
1703;SDS011;849;48.780;9.216;2023-08-21T11:38:40;48.30;;;5.97;;
1703;SDS011;849;48.780;9.216;2023-08-21T11:41:11;48.20;;;5.50;;
1703;SDS011;849;48.780;9.216;2023-08-21T11:43:42;48.17;;;5.23;;
1703;SDS011;849;48.780;9.216;2023-08-21T11:46:13;48.30;;;5.83;;
1703;SDS011;849;48.780;9.216;2023-08-21T11:48:44;48.00;;;5.17;;
1703;SDS011;849;48.780;9.216;2023-08-21T11:51:15;48.20;;;5.60;;
1703;SDS011;849;48.780;9.216;2023-08-21T11:53:47;48.30;;;5.50;;
1703;SDS011;849;48.780;9.216;2023-08-21T11:56:19;48.27;;;5.73;;
1703;SDS011;849;48.780;9.216;2023-08-21T11:58:49;48.30;;;5.90;;
1703;SDS011;849;48.780;9.216;2023-08-21T12:01:21;48.20;;;5.43;;
1703;SDS011;849;48.780;9.216;2023-08-21T12:03:52;48.20;;;5.67;;
1703;SDS011;849;48.780;9.216;2023-08-21T12:06:26;48.10;;;5.30;;
1703;SDS011;849;48.780;9.216;2023-08-21T12:09:02;48.00;;;5.27;;
1703;SDS011;849;48.780;9.216;2023-08-21T12:11:34;48.40;;;5.20;;
1703;SDS011;849;48.780;9.216;2023-08-21T12:14:08;48.20;;;5.10;;
1703;SDS011;849;48.780;9.216;2023-08-21T12:16:38;48.10;;;5.47;;
1703;SDS011;849;48.780;9.216;2023-08-21T12:19:09;48.20;;;5.33;;
1703;SDS011;849;48.780;9.216;2023-08-21T12:21:42;48.00;;;4.67;;
1703;SDS011;849;48.780;9.216;2023-08-21T12:24:12;48.27;;;5.10;;
1703;SDS011;849;48.780;9.216;2023-08-21T12:26:43;48.33;;;5.30;;
1703;SDS011;849;48.780;9.216;2023-08-21T12:29:14;48.30;;;5.23;;
1703;SDS011;849;48.780;9.216;2023-08-21T12:31:45;48.20;;;5.40;;
1703;SDS011;849;48.780;9.216;2023-08-21T12:34:17;48.27;;;5.47;;
1703;SDS011;849;48.780;9.216;2023-08-21T12:36:49;48.37;;;5.70;;
1703;SDS011;849;48.780;9.216;2023-08-21T12:39:21;48.30;;;5.67;;
1703;SDS011;849;48.780;9.216;2023-08-21T12:41:52;48.20;;;5.30;;
1703;SDS011;849;48.780;9.216;2023-08-21T12:44:23;48.10;;;5.33;;
1703;SDS011;849;48.780;9.216;2023-08-21T12:46:54;48.10;;;5.23;;
1703;SDS011;849;48.780;9.216;2023-08-21T12:49:24;48.20;;;5.50;;
1703;SDS011;849;48.780;9.216;2023-08-21T12:51:55;48.10;;;5.07;;
1703;SDS011;849;48.780;9.216;2023-08-21T12:54:26;48.20;;;5.50;;
1703;SDS011;849;48.780;9.216;2023-08-21T12:56:57;48.40;;;5.97;;
1703;SDS011;849;48.780;9.216;2023-08-21T12:59:28;48.30;;;5.10;;
1703;SDS011;849;48.780;9.216;2023-08-21T13:02:01;48.20;;;4.93;;
1703;SDS011;849;48.780;9.216;2023-08-21T13:04:32;48.20;;;5.10;;
1703;SDS011;849;48.780;9.216;2023-08-21T13:07:04;48.17;;;5.20;;
1703;SDS011;849;48.780;9.216;2023-08-21T13:09:35;48.20;;;5.17;;
1703;SDS011;849;48.780;9.216;2023-08-21T13:12:06;48.10;;;5.13;;
1703;SDS011;849;48.780;9.216;2023-08-21T13:14:38;48.13;;;5.00;;
1703;SDS011;849;48.780;9.216;2023-08-21T13:17:09;48.03;;;5.20;;
1703;SDS011;849;48.780;9.216;2023-08-21T13:19:41;48.00;;;4.90;;
1703;SDS011;849;48.780;9.216;2023-08-21T13:22:11;48.00;;;4.60;;
1703;SDS011;849;48.780;9.216;2023-08-21T13:24:42;48.17;;;5.07;;
1703;SDS011;849;48.780;9.216;2023-08-21T13:27:13;48.00;;;4.90;;
1703;SDS011;849;48.780;9.216;2023-08-21T13:29:45;48.20;;;5.27;;
1703;SDS011;849;48.780;9.216;2023-08-21T13:32:16;48.20;;;5.00;;
1703;SDS011;849;48.780;9.216;2023-08-21T13:34:47;48.07;;;5.03;;
1703;SDS011;849;48.780;9.216;2023-08-21T13:37:18;48.20;;;5.10;;
1703;SDS011;849;48.780;9.216;2023-08-21T13:39:48;48.00;;;4.70;;
1703;SDS011;849;48.780;9.216;2023-08-21T13:42:19;48.10;;;5.23;;
1703;SDS011;849;48.780;9.216;2023-08-21T13:44:50;48.10;;;5.30;;
1703;SDS011;849;48.780;9.216;2023-08-21T13:47:21;48.10;;;5.23;;
1703;SDS011;849;48.780;9.216;2023-08-21T13:49:52;48.07;;;4.77;;
1703;SDS011;849;48.780;9.216;2023-08-21T13:52:23;48.07;;;5.27;;
1703;SDS011;849;48.780;9.216;2023-08-21T13:54:53;48.10;;;5.03;;
1703;SDS011;849;48.780;9.216;2023-08-21T13:57:24;47.90;;;4.70;;
1703;SDS011;849;48.780;9.216;2023-08-21T13:59:55;47.90;;;5.10;;
1703;SDS011;849;48.780;9.216;2023-08-21T14:02:26;48.13;;;5.03;;
1703;SDS011;849;48.780;9.216;2023-08-21T14:04:57;48.00;;;4.67;;
1703;SDS011;849;48.780;9.216;2023-08-21T14:07:28;47.90;;;4.53;;
1703;SDS011;849;48.780;9.216;2023-08-21T14:09:59;48.00;;;4.83;;
1703;SDS011;849;48.780;9.216;2023-08-21T14:12:30;47.97;;;4.83;;
1703;SDS011;849;48.780;9.216;2023-08-21T14:15:01;47.90;;;4.60;;
1703;SDS011;849;48.780;9.216;2023-08-21T14:17:32;48.00;;;4.37;;
1703;SDS011;849;48.780;9.216;2023-08-21T14:20:03;48.00;;;4.90;;
1703;SDS011;849;48.780;9.216;2023-08-21T14:22:35;48.10;;;5.20;;
1703;SDS011;849;48.780;9.216;2023-08-21T14:25:06;48.20;;;5.50;;
1703;SDS011;849;48.780;9.216;2023-08-21T14:27:37;48.00;;;4.80;;
1703;SDS011;849;48.780;9.216;2023-08-21T14:30:07;47.90;;;4.60;;
1703;SDS011;849;48.780;9.216;2023-08-21T14:32:38;47.93;;;4.90;;
1703;SDS011;849;48.780;9.216;2023-08-21T14:35:09;48.00;;;4.70;;
1703;SDS011;849;48.780;9.216;2023-08-21T14:37:47;47.87;;;4.73;;
1703;SDS011;849;48.780;9.216;2023-08-21T14:40:18;48.00;;;5.10;;
1703;SDS011;849;48.780;9.216;2023-08-21T14:42:48;47.90;;;5.23;;
1703;SDS011;849;48.780;9.216;2023-08-21T14:45:19;48.07;;;4.97;;
1703;SDS011;849;48.780;9.216;2023-08-21T14:47:50;47.90;;;4.90;;
1703;SDS011;849;48.780;9.216;2023-08-21T14:50:21;47.80;;;4.83;;
1703;SDS011;849;48.780;9.216;2023-08-21T14:52:52;47.90;;;5.20;;
1703;SDS011;849;48.780;9.216;2023-08-21T14:55:22;47.90;;;5.47;;
1703;SDS011;849;48.780;9.216;2023-08-21T14:57:53;48.07;;;5.57;;
1703;SDS011;849;48.780;9.216;2023-08-21T15:00:24;48.00;;;5.53;;
1703;SDS011;849;48.780;9.216;2023-08-21T15:02:55;47.80;;;5.30;;
1703;SDS011;849;48.780;9.216;2023-08-21T15:05:26;47.70;;;4.90;;
1703;SDS011;849;48.780;9.216;2023-08-21T15:07:58;47.67;;;5.33;;
1703;SDS011;849;48.780;9.216;2023-08-21T15:10:38;47.80;;;5.60;;
1703;SDS011;849;48.780;9.216;2023-08-21T15:13:09;47.80;;;5.10;;
1703;SDS011;849;48.780;9.216;2023-08-21T15:15:40;47.80;;;5.30;;
1703;SDS011;849;48.780;9.216;2023-08-21T15:18:10;47.80;;;5.17;;
1703;SDS011;849;48.780;9.216;2023-08-21T15:20:41;47.80;;;4.50;;
1703;SDS011;849;48.780;9.216;2023-08-21T15:23:12;47.40;;;3.93;;
1703;SDS011;849;48.780;9.216;2023-08-21T15:25:43;47.50;;;4.60;;
1703;SDS011;849;48.780;9.216;2023-08-21T15:28:14;47.30;;;4.17;;
1703;SDS011;849;48.780;9.216;2023-08-21T15:30:45;47.30;;;4.03;;
1703;SDS011;849;48.780;9.216;2023-08-21T15:33:15;47.20;;;3.83;;
1703;SDS011;849;48.780;9.216;2023-08-21T15:35:46;47.37;;;3.90;;
1703;SDS011;849;48.780;9.216;2023-08-21T15:38:23;47.30;;;4.00;;
1703;SDS011;849;48.780;9.216;2023-08-21T15:40:54;47.70;;;4.40;;
1703;SDS011;849;48.780;9.216;2023-08-21T15:43:32;47.40;;;4.20;;
1703;SDS011;849;48.780;9.216;2023-08-21T15:46:03;47.27;;;4.50;;
1703;SDS011;849;48.780;9.216;2023-08-21T15:48:36;47.60;;;5.30;;
1703;SDS011;849;48.780;9.216;2023-08-21T15:51:07;47.40;;;4.67;;